Time;durP1;ratioP1;P1;durP2;ratioP2;P2;SDS_P1;SDS_P2;PMS_P1;PMS_P2;Temp;Humidity;BMP_temperature;BMP_pressure;BME280_temperature;BME280_humidity;BME280_pressure;Samples;Min_cycle;Max_cycle;Signal;HPM_P1;HPM_P2
2022/04/27 00:00:48;;;;;;;7.15;4.70;;;;;;;12.52;43.96;102240.78;6310655;22;20089;-63
2022/04/27 00:03:14;;;;;;;5.68;5.07;;;;;;;12.50;44.12;102231.03;6337751;22;20407;-63
2022/04/27 00:05:42;;;;;;;10.85;5.40;;;;;;;12.48;44.39;102230.25;6337822;22;20086;-64
2022/04/27 00:08:08;;;;;;;7.63;5.78;;;;;;;12.48;44.29;102232.94;6338101;22;20094;-63
2022/04/27 00:10:39;;;;;;;9.07;5.45;;;;;;;12.48;44.47;102233.81;6337801;22;20015;-63
2022/04/27 00:13:06;;;;;;;9.15;5.20;;;;;;;12.48;44.48;102232.94;6337993;22;20345;-63
2022/04/27 00:15:33;;;;;;;6.72;5.35;;;;;;;12.48;44.67;102224.88;6337534;22;20015;-63
2022/04/27 00:17:59;;;;;;;8.80;5.10;;;;;;;12.47;44.65;102226.69;6337776;22;20018;-63
2022/04/27 00:20:27;;;;;;;6.18;4.72;;;;;;;12.46;44.82;102224.94;6337649;22;20089;-63
2022/04/27 00:22:53;;;;;;;10.02;4.93;;;;;;;12.47;44.85;102228.50;6337290;22;20023;-64
2022/04/27 00:25:21;;;;;;;6.13;5.10;;;;;;;12.46;44.69;102224.09;6285499;22;20121;-64
2022/04/27 00:27:48;;;;;;;6.28;5.03;;;;;;;12.44;44.70;102217.91;6339793;22;20333;-63
2022/04/27 00:30:16;;;;;;;7.88;4.82;;;;;;;12.40;44.93;102222.59;6338929;22;20094;-63
2022/04/27 00:32:43;;;;;;;8.60;5.60;;;;;;;12.37;45.18;102220.97;6285076;22;20025;-63
2022/04/27 00:35:10;;;;;;;6.88;5.32;;;;;;;12.34;44.93;102229.22;6312041;22;20022;-65
2022/04/27 00:37:36;;;;;;;8.95;5.32;;;;;;;12.30;44.87;102226.78;6339575;22;20011;-64
2022/04/27 00:40:04;;;;;;;9.15;5.68;;;;;;;12.28;44.91;102234.06;6312311;22;20437;-63
2022/04/27 00:42:32;;;;;;;8.00;5.93;;;;;;;12.26;44.91;102231.47;6339214;22;20514;-65
2022/04/27 00:44:59;;;;;;;8.52;5.60;;;;;;;12.24;44.88;102236.06;6311542;22;20064;-64
2022/04/27 00:47:28;;;;;;;7.75;5.60;;;;;;;12.22;44.87;102237.97;6311719;22;20476;-63
2022/04/27 00:49:54;;;;;;;8.93;5.28;;;;;;;12.19;44.93;102238.16;6311461;22;20349;-63
2022/04/27 00:52:22;;;;;;;6.68;4.88;;;;;;;12.17;44.91;102239.19;6311417;22;20042;-63
2022/04/27 00:54:51;;;;;;;7.50;5.53;;;;;;;12.12;44.84;102242.16;6339061;22;20007;-63
2022/04/27 00:57:19;;;;;;;10.55;6.40;;;;;;;12.09;44.80;102239.63;6312178;22;20086;-63
2022/04/27 00:59:47;;;;;;;9.13;5.47;;;;;;;12.04;45.02;102242.56;6338740;22;20015;-63
2022/04/27 01:02:17;;;;;;;11.27;5.45;;;;;;;11.97;45.04;102237.59;6339241;22;20018;-63
2022/04/27 01:04:44;;;;;;;11.77;5.93;;;;;;;11.88;44.80;102243.47;6311673;22;20080;-64
2022/04/27 01:07:12;;;;;;;9.52;5.55;;;;;;;11.78;44.82;102243.97;6311009;22;20019;-63
2022/04/27 01:09:40;;;;;;;10.20;5.72;;;;;;;11.73;44.95;102242.44;6311560;22;20060;-65
2022/04/27 01:12:11;;;;;;;8.02;5.88;;;;;;;11.65;45.11;102240.16;6338867;22;20011;-65
2022/04/27 01:14:49;;;;;;;11.40;6.05;;;;;;;11.60;45.24;102244.91;6311096;22;20014;-64
2022/04/27 01:17:17;;;;;;;9.20;6.10;;;;;;;11.57;45.31;102236.13;6339110;22;20021;-64
2022/04/27 01:19:44;;;;;;;9.00;6.13;;;;;;;11.53;45.21;102242.63;6310671;22;20060;-64
2022/04/27 01:22:15;;;;;;;11.18;7.32;;;;;;;11.48;45.18;102250.06;6339018;22;20019;-65
2022/04/27 01:24:44;;;;;;;9.13;6.32;;;;;;;11.44;45.57;102244.84;6311442;22;20068;-65
2022/04/27 01:27:12;;;;;;;10.93;6.68;;;;;;;11.42;45.52;102249.44;6310343;22;20388;-64
2022/04/27 01:29:38;;;;;;;9.18;6.97;;;;;;;11.36;45.61;102247.06;6311182;22;20023;-65
2022/04/27 01:32:10;;;;;;;12.15;6.75;;;;;;;11.32;45.82;102248.19;6338749;22;20098;-65
2022/04/27 01:34:37;;;;;;;8.10;5.80;;;;;;;11.30;45.91;102250.09;6311600;22;20090;-65
2022/04/27 01:39:50;;;;;;;8.95;6.30;;;;;;;11.22;45.83;102252.28;6311323;22;20443;-64
2022/04/27 01:42:22;;;;;;;8.80;6.53;;;;;;;11.18;45.86;102253.41;6311130;22;20029;-64
2022/04/27 01:44:49;;;;;;;9.23;6.40;;;;;;;11.16;45.83;102257.13;6339275;22;20015;-64
2022/04/27 01:47:15;;;;;;;8.93;6.28;;;;;;;11.13;45.91;102255.41;6337878;22;20471;-64
2022/04/27 01:49:42;;;;;;;8.18;6.03;;;;;;;11.11;45.99;102252.81;6338740;22;20019;-63
2022/04/27 01:54:59;;;;;;;11.70;6.65;;;;;;;11.08;45.86;102261.03;6338670;22;20014;-65
2022/04/27 01:57:26;;;;;;;9.43;6.43;;;;;;;11.04;45.76;102269.34;6338848;22;20068;-64
2022/04/27 01:59:55;;;;;;;7.60;6.70;;;;;;;11.03;45.95;102259.53;6311077;22;20477;-65
2022/04/27 02:02:26;;;;;;;10.75;6.15;;;;;;;11.01;45.93;102269.50;6311150;22;20023;-65
2022/04/27 02:04:56;;;;;;;9.50;7.00;;;;;;;10.98;46.00;102270.50;6286120;22;20014;-65
2022/04/27 02:07:22;;;;;;;9.30;6.43;;;;;;;10.95;45.97;102276.03;6339332;22;20333;-65
2022/04/27 02:09:49;;;;;;;12.10;6.25;;;;;;;10.93;46.03;102271.69;6311157;22;20014;-64
2022/04/27 02:12:19;;;;;;;6.95;6.07;;;;;;;10.91;46.17;102284.34;6310751;22;20068;-64
2022/04/27 02:14:57;;;;;;;7.38;6.60;;;;;;;10.89;45.95;102278.16;6287671;22;20094;-64
2022/04/27 02:17:24;;;;;;;9.95;6.22;;;;;;;10.85;46.07;102276.56;6285364;22;20015;-64
2022/04/27 02:19:51;;;;;;;10.52;6.25;;;;;;;10.85;45.91;102280.13;6309819;22;20023;-64
2022/04/27 02:22:24;;;;;;;8.32;6.07;;;;;;;10.82;46.15;102281.16;6285227;22;20130;-65
2022/04/27 02:24:51;;;;;;;8.05;5.10;;;;;;;10.78;46.07;102284.06;6311197;22;20453;-64
2022/04/27 02:27:20;;;;;;;7.22;5.30;;;;;;;10.75;45.99;102290.47;6337969;22;20047;-65
2022/04/27 02:29:46;;;;;;;11.27;5.88;;;;;;;10.71;46.15;102288.88;6310434;22;20079;-64
2022/04/27 02:32:25;;;;;;;8.40;5.70;;;;;;;10.67;46.12;102289.09;6310926;22;20018;-64
2022/04/27 02:34:52;;;;;;;7.18;5.82;;;;;;;10.63;45.93;102295.56;6337642;22;20098;-63
2022/04/27 02:37:21;;;;;;;8.32;6.28;;;;;;;10.57;46.11;102290.50;6310909;22;20042;-64
2022/04/27 02:39:53;;;;;;;6.68;5.63;;;;;;;10.48;46.11;102294.47;6310564;22;20019;-64
2022/04/27 02:42:26;;;;;;;10.18;5.93;;;;;;;10.43;46.17;102299.22;6310756;22;20065;-64
2022/04/27 02:44:52;;;;;;;12.13;6.07;;;;;;;10.39;46.19;102301.13;6260229;22;20068;-63
2022/04/27 02:47:21;;;;;;;10.70;6.45;;;;;;;10.35;46.49;102302.22;6309683;22;20019;-64
2022/04/27 02:52:35;;;;;;;7.72;6.45;;;;;;;10.22;46.14;102302.88;6337934;22;20521;-64
2022/04/27 02:55:15;;;;;;;11.25;7.50;;;;;;;10.14;46.40;102300.50;6310603;22;20407;-63
2022/04/27 02:57:42;;;;;;;10.40;6.35;;;;;;;10.09;46.55;102305.22;6310561;22;20018;-64
2022/04/27 03:00:12;;;;;;;12.50;7.03;;;;;;;10.04;46.67;102302.75;6310646;22;20101;-64
2022/04/27 03:02:40;;;;;;;8.25;6.45;;;;;;;10.00;46.70;102295.75;6337972;22;20019;-64
2022/04/27 03:05:08;;;;;;;6.78;6.03;;;;;;;9.98;46.50;102308.38;6284937;22;20437;-64
2022/04/27 03:07:35;;;;;;;9.05;6.10;;;;;;;9.96;46.70;102306.72;6310303;22;20340;-64
2022/04/27 03:10:02;;;;;;;11.93;6.85;;;;;;;9.94;46.97;102309.47;6310320;22;20106;-64
2022/04/27 03:12:31;;;;;;;11.18;6.95;;;;;;;9.93;46.65;102307.72;6310450;22;20018;-65
2022/04/27 03:14:59;;;;;;;9.52;6.90;;;;;;;9.91;46.75;102303.38;6310297;22;20015;-63
2022/04/27 03:17:27;;;;;;;9.35;7.50;;;;;;;9.87;46.73;102306.19;6310494;22;20068;-64
2022/04/27 03:19:56;;;;;;;10.10;7.20;;;;;;;9.84;46.81;102306.31;6310012;22;20101;-64
2022/04/27 03:22:26;;;;;;;10.23;6.40;;;;;;;9.82;46.98;102307.34;6309166;22;20023;-64
2022/04/27 03:24:54;;;;;;;8.85;6.65;;;;;;;9.81;46.89;102319.00;6310234;22;20029;-64
2022/04/27 03:27:25;;;;;;;12.10;7.00;;;;;;;9.79;47.07;102316.38;6309137;22;20022;-64
2022/04/27 03:29:53;;;;;;;8.23;6.57;;;;;;;9.78;46.95;102311.97;6309132;22;20096;-65
2022/04/27 03:32:22;;;;;;;10.75;7.50;;;;;;;9.77;47.09;102315.59;6309583;22;20025;-64
2022/04/27 03:34:53;;;;;;;13.80;8.15;;;;;;;9.74;47.11;102310.34;6309518;22;20064;-65
2022/04/27 03:37:24;;;;;;;11.35;7.70;;;;;;;9.69;47.12;102307.00;6309209;22;20387;-64
2022/04/27 03:39:50;;;;;;;13.38;8.13;;;;;;;9.67;47.13;102306.19;6309776;22;20337;-64
2022/04/27 03:42:23;;;;;;;12.60;8.85;;;;;;;9.65;47.34;102312.53;6309400;22;20106;-64
2022/04/27 03:44:56;;;;;;;11.32;7.95;;;;;;;9.62;47.38;102318.91;6309015;22;20014;-64
2022/04/27 03:47:25;;;;;;;11.43;8.00;;;;;;;9.63;47.30;102319.78;6336880;22;20121;-62
2022/04/27 03:49:55;;;;;;;10.07;7.15;;;;;;;9.60;47.34;102323.47;6337292;22;20023;-63
2022/04/27 03:52:26;;;;;;;8.80;7.90;;;;;;;9.57;47.38;102324.47;6337261;22;20502;-64
2022/04/27 03:54:52;;;;;;;10.18;7.53;;;;;;;9.54;47.36;102326.41;6309027;22;20449;-64
2022/04/27 03:57:20;;;;;;;9.95;6.75;;;;;;;9.50;47.39;102331.03;6309543;22;20011;-64
2022/04/27 03:59:50;;;;;;;12.00;8.30;;;;;;;9.48;47.28;102335.59;6310273;22;20480;-63
2022/04/27 04:02:22;;;;;;;12.48;8.32;;;;;;;9.44;47.38;102323.25;6311673;22;20015;-63
2022/04/27 04:04:50;;;;;;;13.68;8.07;;;;;;;9.42;47.41;102335.00;6311560;22;20014;-63
2022/04/27 04:07:17;;;;;;;11.63;7.70;;;;;;;9.38;47.36;102339.63;6311441;22;20019;-63
2022/04/27 04:09:50;;;;;;;11.93;8.23;;;;;;;9.36;47.46;102329.88;6310409;22;20038;-63
2022/04/27 04:12:20;;;;;;;10.30;8.27;;;;;;;9.34;47.41;102340.69;6311456;22;20023;-62
2022/04/27 04:15:06;;;;;;;12.45;7.88;;;;;;;9.33;47.40;102343.44;6338983;22;20030;-62
2022/04/27 04:17:46;;;;;;;14.50;7.45;;;;;;;9.29;47.45;102350.72;6311412;22;20023;-62
2022/04/27 04:20:29;;;;;;;10.25;7.60;;;;;;;9.26;47.45;102350.84;6288261;22;20019;-62
2022/04/27 04:23:05;;;;;;;11.00;8.00;;;;;;;9.24;47.40;102358.97;6311138;22;20025;-63
2022/04/27 04:28:31;;;;;;;11.18;8.25;;;;;;;9.20;47.34;102353.78;6338072;22;20042;-64
2022/04/27 04:31:04;;;;;;;10.88;7.95;;;;;;;9.16;47.41;102360.22;6311628;22;20064;-64
2022/04/27 04:33:57;;;;;;;10.60;8.18;;;;;;;9.10;47.32;102366.69;6282114;22;20037;-62
2022/04/27 04:36:25;;;;;;;15.43;8.73;;;;;;;9.08;47.42;102370.38;6310146;22;20015;-64
2022/04/27 04:38:52;;;;;;;9.70;8.57;;;;;;;9.07;47.61;102371.31;6284400;22;20042;-63
2022/04/27 04:41:27;;;;;;;11.93;8.88;;;;;;;9.05;47.78;102379.41;6337648;22;20022;-63
2022/04/27 04:43:56;;;;;;;13.70;9.02;;;;;;;9.04;47.57;102382.16;6285281;22;20015;-63
2022/04/27 04:46:25;;;;;;;13.20;8.70;;;;;;;9.00;47.87;102377.84;6310236;22;20057;-63
2022/04/27 04:49:19;;;;;;;10.30;8.40;;;;;;;8.98;47.78;102375.22;6309894;22;20011;-63
2022/04/27 04:52:03;;;;;;;13.65;8.70;;;;;;;8.97;48.07;102380.66;6287547;22;20011;-64
2022/04/27 04:54:42;;;;;;;13.18;8.52;;;;;;;8.93;47.72;102387.06;6310187;22;20019;-65
2022/04/27 04:57:24;;;;;;;12.95;8.68;;;;;;;8.93;48.03;102395.09;6338394;22;20072;-64
2022/04/27 04:59:58;;;;;;;11.75;8.52;;;;;;;8.93;48.45;102395.97;6310442;22;20041;-63
2022/04/27 05:02:44;;;;;;;15.00;9.90;;;;;;;8.94;48.19;102402.22;6337828;22;20529;-64
2022/04/27 05:05:14;;;;;;;15.73;10.00;;;;;;;8.91;48.28;102393.31;6337984;22;20023;-64
2022/04/27 05:07:43;;;;;;;14.70;9.35;;;;;;;8.90;48.37;102401.41;6338086;22;20042;-64
2022/04/27 05:10:16;;;;;;;12.63;10.07;;;;;;;8.91;48.44;102393.31;6337706;22;20026;-64
2022/04/27 05:13:03;;;;;;;14.07;9.05;;;;;;;8.93;48.33;102400.47;6291974;22;20027;-63
2022/04/27 05:15:49;;;;;;;15.60;9.27;;;;;;;8.95;48.34;102404.84;6310191;22;20018;-63
2022/04/27 05:18:35;;;;;;;16.70;9.80;;;;;;;8.97;48.47;102400.28;6337880;22;20122;-63
2022/04/27 05:21:14;;;;;;;15.18;9.52;;;;;;;8.98;48.68;102404.72;6337710;22;20026;-62
2022/04/27 05:24:04;;;;;;;13.00;9.30;;;;;;;9.01;48.67;102409.06;6309707;22;20015;-63
2022/04/27 05:27:06;;;;;;;14.18;9.02;;;;;;;9.04;48.63;102411.63;6310337;22;20092;-64
2022/04/27 05:32:45;;;;;;;12.70;9.30;;;;;;;9.02;48.85;102418.84;6338175;22;20087;-64
2022/04/27 05:35:31;;;;;;;14.15;10.00;;;;;;;8.97;49.06;102427.06;6337817;22;20115;-64
2022/04/27 05:38:12;;;;;;;13.70;10.23;;;;;;;8.97;49.15;102424.41;6310093;22;20068;-64
2022/04/27 05:41:15;;;;;;;15.73;10.75;;;;;;;9.03;49.34;102431.31;6309964;22;20018;-63
2022/04/27 05:43:50;;;;;;;12.05;10.45;;;;;;;9.07;49.24;102433.81;6337728;22;20023;-63
2022/04/27 05:46:42;;;;;;;14.55;9.90;;;;;;;9.13;49.36;102435.38;6289246;22;20028;-63
2022/04/27 05:49:22;;;;;;;13.25;10.23;;;;;;;9.20;49.29;102435.06;6309310;22;20093;-64
2022/04/27 05:52:11;;;;;;;15.05;11.60;;;;;;;9.28;49.69;102439.25;6337584;22;20025;-63
2022/04/27 05:55:04;;;;;;;14.70;11.25;;;;;;;9.36;49.78;102440.69;6336896;22;20460;-64
2022/04/27 05:57:46;;;;;;;14.77;11.63;;;;;;;9.42;50.02;102439.56;6310054;22;20053;-63
2022/04/27 06:00:37;;;;;;;17.02;12.20;;;;;;;9.50;50.19;102437.44;6278397;22;20034;-64
2022/04/27 06:03:25;;;;;;;17.65;12.85;;;;;;;9.57;50.17;102441.63;6309593;22;20387;-63
2022/04/27 06:05:56;;;;;;;19.00;13.52;;;;;;;9.63;50.48;102444.03;6309519;22;20010;-64
2022/04/27 06:08:23;;;;;;;21.27;13.90;;;;;;;9.69;50.57;102451.88;6284257;22;20509;-64
2022/04/27 06:11:01;;;;;;;22.00;13.20;;;;;;;9.79;50.61;102449.66;6309621;22;20019;-65
2022/04/27 06:13:37;;;;;;;18.67;13.57;;;;;;;9.88;50.78;102451.97;6286366;22;20026;-63
2022/04/27 06:16:22;;;;;;;18.20;12.73;;;;;;;10.00;50.90;102454.13;6309140;22;20449;-63
2022/04/27 06:19:01;;;;;;;21.05;12.57;;;;;;;10.16;50.94;102457.00;6286081;22;20015;-64
2022/04/27 06:21:32;;;;;;;23.00;12.50;;;;;;;10.32;51.12;102452.75;6309259;22;20025;-65
2022/04/27 06:24:05;;;;;;;18.17;12.95;;;;;;;10.52;51.12;102459.94;6284971;22;20057;-64
2022/04/27 06:26:33;;;;;;;16.42;12.55;;;;;;;10.69;51.06;102454.66;6309651;22;20015;-65
2022/04/27 06:29:00;;;;;;;18.50;13.43;;;;;;;10.87;51.08;102460.13;6308716;22;20079;-65
2022/04/27 06:31:30;;;;;;;16.05;12.27;;;;;;;11.03;50.91;102461.16;6309237;22;20068;-65
2022/04/27 06:34:03;;;;;;;17.20;11.50;;;;;;;11.23;51.09;102469.19;6284774;22;20011;-65
2022/04/27 06:36:31;;;;;;;16.27;11.27;;;;;;;11.43;51.11;102468.22;6310353;22;20015;-64
2022/04/27 06:39:00;;;;;;;13.68;11.02;;;;;;;11.62;50.96;102468.16;6310686;22;20331;-65
2022/04/27 06:41:31;;;;;;;17.83;11.82;;;;;;;11.78;50.95;102472.75;6337875;22;20045;-64
2022/04/27 06:44:21;;;;;;;17.73;11.75;;;;;;;11.94;50.77;102472.88;6293938;22;20061;-63
2022/04/27 06:47:06;;;;;;;12.80;10.75;;;;;;;12.13;50.57;102480.00;6338290;22;20029;-64
2022/04/27 06:49:51;;;;;;;14.30;11.70;;;;;;;12.31;50.46;102485.31;6338389;22;20463;-63
2022/04/27 06:52:42;;;;;;;19.52;11.90;;;;;;;12.52;50.50;102483.31;6338424;22;20029;-65
2022/04/27 06:55:27;;;;;;;16.83;11.93;;;;;;;12.65;50.36;102484.41;6338343;22;20026;-64
2022/04/27 06:58:12;;;;;;;17.23;11.38;;;;;;;12.79;50.03;102488.19;6338178;22;20504;-64
2022/04/27 07:00:44;;;;;;;14.55;11.90;;;;;;;12.87;50.08;102491.34;6309314;22;20072;-64
2022/04/27 07:03:13;;;;;;;14.40;10.15;;;;;;;13.01;50.12;102489.63;6338215;22;20010;-64
2022/04/27 07:05:41;;;;;;;14.95;10.05;;;;;;;13.17;49.90;102495.06;6310543;22;20015;-63
2022/04/27 07:08:08;;;;;;;15.15;10.10;;;;;;;13.35;49.73;102490.47;6309956;22;20091;-64
2022/04/27 07:10:41;;;;;;;14.40;10.75;;;;;;;13.60;49.67;102498.06;6285051;22;20046;-64
2022/04/27 07:13:08;;;;;;;15.70;9.93;;;;;;;13.84;49.58;102493.06;6311149;22;20445;-65
2022/04/27 07:15:35;;;;;;;14.15;9.45;;;;;;;14.04;49.56;102491.91;6337432;22;20014;-64
2022/04/27 07:18:02;;;;;;;10.15;7.65;;;;;;;14.26;49.36;102487.84;6336540;22;20310;-65
2022/04/27 07:20:33;;;;;;;12.00;7.22;;;;;;;14.53;48.83;102484.44;6336626;22;20018;-64
2022/04/27 07:23:00;;;;;;;11.13;6.68;;;;;;;14.75;48.41;102490.25;6337678;22;20046;-64
2022/04/27 07:25:26;;;;;;;11.02;7.97;;;;;;;14.97;48.15;102489.81;6338697;22;20064;-65
2022/04/27 07:27:56;;;;;;;8.82;6.68;;;;;;;15.16;47.65;102494.91;6338593;22;20007;-64
2022/04/27 07:30:27;;;;;;;9.60;6.60;;;;;;;15.33;47.70;102492.00;6285428;22;20017;-64
2022/04/27 07:32:58;;;;;;;10.45;6.82;;;;;;;15.48;47.00;102503.66;6310767;22;20019;-64
2022/04/27 07:35:25;;;;;;;10.20;7.07;;;;;;;15.60;46.93;102494.75;6338503;22;20119;-65
2022/04/27 07:37:51;;;;;;;9.63;5.32;;;;;;;15.74;46.49;102499.28;6338793;22;20081;-65
2022/04/27 07:40:20;;;;;;;6.40;5.45;;;;;;;15.82;46.05;102499.66;6338704;22;20438;-64
2022/04/27 07:42:48;;;;;;;7.38;4.88;;;;;;;15.91;45.91;102503.56;6338131;22;20026;-63
2022/04/27 07:45:15;;;;;;;8.55;5.85;;;;;;;16.06;45.43;102510.66;6338580;22;20021;-62
2022/04/27 07:47:45;;;;;;;9.13;6.07;;;;;;;16.19;45.25;102509.72;6337699;22;20094;-63
2022/04/27 07:50:15;;;;;;;10.43;6.30;;;;;;;16.31;45.11;102510.72;6311050;22;20011;-64
2022/04/27 07:52:42;;;;;;;6.75;5.25;;;;;;;16.43;44.89;102512.63;6338635;22;20106;-64
2022/04/27 07:55:10;;;;;;;5.97;4.55;;;;;;;16.59;44.44;102519.69;6337867;22;20090;-64
2022/04/27 07:57:37;;;;;;;12.20;3.83;;;;;;;16.74;43.93;102515.94;6338420;22;20050;-64
2022/04/27 08:00:16;;;;;;;5.90;4.10;;;;;;;16.83;43.52;102515.28;6338043;22;20026;-64
2022/04/27 08:02:43;;;;;;;8.90;4.47;;;;;;;16.97;43.49;102512.44;6337954;22;20011;-64
2022/04/27 08:05:10;;;;;;;9.05;3.67;;;;;;;17.11;43.00;102516.91;6337682;22;20460;-64
2022/04/27 08:07:39;;;;;;;5.72;3.80;;;;;;;17.28;42.88;102518.41;6338220;22;20010;-63
2022/04/27 08:10:22;;;;;;;4.85;3.78;;;;;;;17.39;42.18;102519.34;6338293;22;20011;-64
2022/04/27 08:12:49;;;;;;;9.63;4.40;;;;;;;17.52;42.14;102524.75;6337965;22;20322;-63
2022/04/27 08:15:18;;;;;;;6.10;3.45;;;;;;;17.65;41.87;102528.28;6337601;22;20015;-63
2022/04/27 08:17:52;;;;;;;5.53;2.20;;;;;;;17.75;41.01;102536.66;6338030;22;20072;-63
2022/04/27 08:23:23;;;;;;;5.10;2.28;;;;;;;17.88;40.30;102537.50;6337156;22;20033;-66
2022/04/27 08:25:50;;;;;;;4.35;2.25;;;;;;;17.96;40.19;102536.94;6337607;22;20019;-66
2022/04/27 08:28:19;;;;;;;5.10;2.20;;;;;;;18.03;39.89;102533.63;6338311;22;20015;-65
2022/04/27 08:30:50;;;;;;;4.93;2.63;;;;;;;18.15;39.72;102534.56;6337736;22;20476;-66
2022/04/27 08:33:17;;;;;;;5.82;2.80;;;;;;;18.23;39.17;102529.38;6337352;22;20069;-66
2022/04/27 08:35:43;;;;;;;3.42;2.58;;;;;;;18.25;39.03;102542.88;6337751;22;20462;-65
2022/04/27 08:38:11;;;;;;;4.20;2.97;;;;;;;18.30;38.81;102530.66;6338206;22;20011;-66
2022/04/27 08:40:44;;;;;;;5.97;3.50;;;;;;;18.33;38.69;102535.00;6337847;22;20042;-66
2022/04/27 08:43:12;;;;;;;6.05;3.20;;;;;;;18.35;38.25;102530.28;6337787;22;20449;-66
2022/04/27 08:45:41;;;;;;;8.55;3.53;;;;;;;18.35;38.08;102533.88;6336894;22;20014;-66
2022/04/27 08:48:09;;;;;;;6.22;3.20;;;;;;;18.39;38.30;102538.09;6337427;22;20017;-66
2022/04/27 08:50:38;;;;;;;4.75;2.83;;;;;;;18.47;37.69;102536.63;6337923;22;20027;-65
2022/04/27 08:53:05;;;;;;;5.10;3.13;;;;;;;18.57;38.08;102540.38;6337446;22;20437;-65
2022/04/27 08:55:32;;;;;;;5.15;3.67;;;;;;;18.67;37.91;102539.59;6337061;22;20325;-66
2022/04/27 08:58:17;;;;;;;7.28;4.15;;;;;;;18.79;37.56;102536.91;6338020;22;20333;-66
2022/04/27 09:01:04;;;;;;;4.88;3.03;;;;;;;18.85;37.37;102542.72;6337633;22;20502;-66
2022/04/27 09:03:31;;;;;;;5.72;3.00;;;;;;;18.90;37.13;102537.78;6337758;22;20334;-66
2022/04/27 09:06:08;;;;;;;7.70;3.55;;;;;;;18.94;36.71;102547.44;6310987;22;20332;-66
2022/04/27 09:08:44;;;;;;;7.10;3.53;;;;;;;19.00;36.71;102544.22;6337734;22;20014;-66
2022/04/27 09:11:21;;;;;;;5.03;3.55;;;;;;;19.08;36.40;102540.03;6337931;22;20310;-66
2022/04/27 09:13:50;;;;;;;7.00;3.85;;;;;;;19.14;36.52;102542.25;6337514;22;20102;-66
2022/04/27 09:16:20;;;;;;;5.93;4.15;;;;;;;19.17;36.22;102542.00;6337188;22;20433;-66
2022/04/27 09:21:53;;;;;;;6.78;4.10;;;;;;;19.20;36.05;102547.22;6336585;22;20064;-67
2022/04/27 09:24:21;;;;;;;6.47;4.10;;;;;;;19.31;35.96;102539.03;6337535;22;20093;-66
2022/04/27 09:27:02;;;;;;;7.03;4.78;;;;;;;19.43;36.16;102532.63;6337450;22;20488;-66
2022/04/27 09:29:29;;;;;;;7.60;4.80;;;;;;;19.60;36.33;102543.03;6337739;22;20093;-67
2022/04/27 09:32:01;;;;;;;7.47;4.20;;;;;;;19.64;35.77;102543.63;6310498;22;20015;-66
2022/04/27 09:34:27;;;;;;;5.70;4.13;;;;;;;19.69;36.00;102533.22;6337549;22;20022;-67
2022/04/27 09:37:24;;;;;;;6.80;4.00;;;;;;;19.69;35.28;102530.50;6338532;22;20019;-67
2022/04/27 09:40:06;;;;;;;8.43;4.70;;;;;;;19.75;35.41;102540.03;6306641;22;20068;-66
2022/04/27 09:42:47;;;;;;;7.50;3.83;;;;;;;19.85;35.66;102536.41;6308531;22;20068;-66
2022/04/27 09:45:13;;;;;;;6.22;4.15;;;;;;;19.92;35.18;102540.34;6337209;22;20459;-66
2022/04/27 09:47:48;;;;;;;7.28;4.88;;;;;;;20.02;34.85;102545.88;6309620;22;20011;-66
2022/04/27 09:50:19;;;;;;;6.50;4.23;;;;;;;20.17;35.03;102544.63;6337340;22;20006;-67
2022/04/27 09:52:47;;;;;;;4.68;3.67;;;;;;;20.30;35.04;102544.44;6337622;22;20072;-66
2022/04/27 09:55:13;;;;;;;5.35;4.38;;;;;;;20.44;34.85;102537.84;6338048;22;20483;-66
2022/04/27 09:57:52;;;;;;;5.97;3.85;;;;;;;20.47;34.23;102534.84;6337260;22;20468;-66
2022/04/27 10:00:25;;;;;;;7.07;4.07;;;;;;;20.46;33.96;102533.09;6338209;22;20022;-66
2022/04/27 10:02:53;;;;;;;10.20;4.57;;;;;;;20.40;33.63;102534.50;6336586;22;20577;-66
2022/04/27 10:05:22;;;;;;;6.43;3.90;;;;;;;20.39;33.80;102545.50;6336567;22;20015;-66
2022/04/27 10:07:50;;;;;;;5.70;4.00;;;;;;;20.38;33.65;102538.31;6309234;22;20425;-66
2022/04/27 10:10:21;;;;;;;6.03;4.15;;;;;;;20.37;33.40;102542.06;6336906;22;20283;-66
2022/04/27 10:12:48;;;;;;;6.80;3.95;;;;;;;20.27;32.90;102545.56;6336974;22;20041;-66
2022/04/27 10:15:15;;;;;;;7.43;4.60;;;;;;;20.13;32.90;102539.56;6337019;22;20022;-66
2022/04/27 10:17:42;;;;;;;6.50;4.53;;;;;;;20.05;33.06;102536.56;6336855;22;20098;-66
2022/04/27 10:20:34;;;;;;;6.70;4.53;;;;;;;20.06;32.78;102538.31;6336901;22;20460;-67
2022/04/27 10:23:27;;;;;;;7.47;4.85;;;;;;;20.16;32.93;102533.84;6336771;22;20404;-67
2022/04/27 10:26:13;;;;;;;7.05;4.20;;;;;;;20.23;32.64;102530.47;6336923;22;20017;-66
2022/04/27 10:28:47;;;;;;;5.57;4.20;;;;;;;20.29;32.54;102527.22;6336690;22;20021;-67
2022/04/27 10:31:48;;;;;;;8.52;5.05;;;;;;;20.34;32.22;102525.94;6336900;22;20460;-66
2022/04/27 10:34:17;;;;;;;5.30;4.65;;;;;;;20.41;32.45;102528.03;6336789;22;20019;-66
2022/04/27 10:36:47;;;;;;;8.43;4.22;;;;;;;20.53;32.60;102526.13;6336898;22;20010;-66
2022/04/27 10:39:16;;;;;;;6.38;4.65;;;;;;;20.61;31.85;102521.72;6336753;22;20010;-66
2022/04/27 10:42:22;;;;;;;7.55;4.82;;;;;;;20.61;31.88;102535.38;6309553;22;20014;-66
2022/04/27 10:44:49;;;;;;;7.75;4.55;;;;;;;20.79;32.47;102515.66;6336283;22;20025;-66
2022/04/27 10:47:20;;;;;;;5.47;4.25;;;;;;;20.90;32.06;102516.47;6336844;22;20010;-66
2022/04/27 10:52:51;;;;;;;4.72;4.15;;;;;;;20.99;32.10;102514.78;6333489;22;20039;-66
2022/04/27 10:55:35;;;;;;;7.07;4.80;;;;;;;21.11;32.21;102515.56;6336632;22;20495;-65
2022/04/27 10:58:16;;;;;;;10.35;6.07;;;;;;;21.26;31.48;102522.41;6336746;22;20011;-66
2022/04/27 11:00:59;;;;;;;7.70;5.28;;;;;;;21.25;31.30;102523.41;6336939;22;20038;-65
2022/04/27 11:03:26;;;;;;;7.47;4.93;;;;;;;21.25;31.56;102518.81;6336868;22;20054;-66
2022/04/27 11:05:57;;;;;;;7.85;5.10;;;;;;;21.26;31.46;102511.47;6309275;22;20341;-66
2022/04/27 11:08:39;;;;;;;8.23;5.20;;;;;;;21.38;31.56;102523.16;6337326;22;20019;-66
2022/04/27 11:11:07;;;;;;;7.68;5.97;;;;;;;21.50;31.27;102516.59;6337965;22;20445;-66
2022/04/27 11:13:37;;;;;;;9.75;5.43;;;;;;;21.57;31.10;102523.25;6338118;22;20018;-66
2022/04/27 11:16:11;;;;;;;5.22;4.53;;;;;;;21.71;31.11;102513.78;6338841;22;20276;-66
2022/04/27 11:18:51;;;;;;;7.27;4.93;;;;;;;21.85;31.18;102513.38;6338294;22;20014;-66
2022/04/27 11:21:22;;;;;;;8.57;5.07;;;;;;;21.93;31.00;102516.25;6338589;22;20406;-66
2022/04/27 11:23:49;;;;;;;7.65;5.15;;;;;;;21.91;30.66;102518.28;6337741;22;20038;-67
2022/04/27 11:26:15;;;;;;;8.85;5.30;;;;;;;21.89;30.77;102514.81;6338083;22;20452;-67
2022/04/27 11:28:42;;;;;;;5.47;4.57;;;;;;;21.78;30.59;102515.81;6338147;22;20045;-65
2022/04/27 11:31:14;;;;;;;8.55;5.82;;;;;;;21.68;30.12;102514.94;6337939;22;20021;-65
2022/04/27 11:33:41;;;;;;;9.13;5.75;;;;;;;21.71;30.52;102511.03;6338279;22;20011;-66
2022/04/27 11:36:22;;;;;;;6.03;4.90;;;;;;;21.76;30.35;102511.50;6337896;22;20018;-66
2022/04/27 11:38:50;;;;;;;6.65;4.97;;;;;;;21.87;30.53;102511.34;6338011;22;20322;-66
2022/04/27 11:41:25;;;;;;;10.95;4.97;;;;;;;21.96;30.27;102512.38;6337899;22;20014;-66
2022/04/27 11:43:55;;;;;;;8.20;5.22;;;;;;;21.94;30.70;102520.72;6337865;22;20014;-66
2022/04/27 11:46:21;;;;;;;6.50;4.63;;;;;;;21.95;30.57;102514.25;6337678;22;20021;-66
2022/04/27 11:48:52;;;;;;;7.45;4.82;;;;;;;21.97;30.42;102511.38;6337266;22;20098;-66
2022/04/27 11:51:29;;;;;;;5.85;4.85;;;;;;;21.98;30.51;102519.44;6337993;22;20043;-63
2022/04/27 11:53:55;;;;;;;9.88;5.78;;;;;;;21.99;29.99;102514.81;6310814;22;20015;-64
2022/04/27 11:56:22;;;;;;;9.57;5.10;;;;;;;22.00;29.87;102517.41;6310091;22;20049;-63
2022/04/27 11:58:49;;;;;;;7.53;5.43;;;;;;;22.06;30.36;102505.94;6337276;22;20014;-63
2022/04/27 12:01:22;;;;;;;9.55;6.25;;;;;;;22.13;29.95;102508.94;6310330;22;20081;-64
2022/04/27 12:03:49;;;;;;;9.50;6.07;;;;;;;22.16;29.82;102509.53;6337429;22;20042;-64
2022/04/27 12:06:18;;;;;;;7.18;5.65;;;;;;;22.23;29.86;102507.06;6337494;22;20011;-64
2022/04/27 12:08:45;;;;;;;7.90;5.40;;;;;;;22.33;29.93;102510.69;6336942;22;20015;-64